Kirklin, IN (46050)

4:59 PM EST on March 01, 2015 (GMT -0500)
1200 E 900 N | Change Station
CLOSE
Current Station
Personal Weather Station
Location: Sheridan, IN
Elevation: 948 ft
Nearby Weather Stations
Active Advisory: Winter Weather Advisory Active Notice: Record Report, Local Storm Report

Elev 948 ft 40.17 °N, 86.24 °W | Updated 5 minutes ago

Overcast
Overcast
28.6 °F
Feels Like 29 °F
N
0.0
Wind Variable Wind from NNE

Today
High -- | Low -- °F
--% Chance of Precip.
Yesterday
High -- | Low -- °F
Precip. -- in
7:19 AM 6:36 PM
Waxing Gibbous, 87% visible
Pressure 30.28 in
Visibility 7.0 miles
Clouds Scattered Clouds 900 ft
Mostly Cloudy 3400 ft
Overcast 5500 ft
Windchill 29 °F
Dew Point 24 °F
Humidity 82%
Rainfall 0.00 in
Snow Depth Not available.
UV 0 out of 12
Pollen .60 out of 12
Air Quality Not available.
Flu Activity Not available.
METAR KTYQ 012155Z AUTO 30003KT 7SM SCT009 BKN034 OVC055 M02/M05 A3028 RMK AO2 T10201049

More Conditions Fewer Conditions

Pressure 30.28 in
Visibility 7.0 miles
Clouds Scattered Clouds 900 ft
Mostly Cloudy 3400 ft
Overcast 5500 ft
Windchill 29 °F
Dew Point 24 °F
Humidity 82%
Rainfall 0.00 in
Snow Depth Not available.
UV 0 out of 12
Pollen .60 out of 12
Air Quality Not available.
Flu Activity Not available.
METAR KTYQ 012155Z AUTO 30003KT 7SM SCT009 BKN034 OVC055 M02/M05 A3028 RMK AO2 T10201049

More Conditions Fewer Conditions

10-Day Weather Forecast

Almanac

Astronomy

Mar. 01, 2015 Rise Set
Actual Time
Civil Twilight
Nautical Twilight
Astronomical Twilight
Moon
Length of Visible Light
Length of Day
Tomorrow will be .
, % of the Moon is Illuminated

Today's Extremes

State Highs State Lows

Community

WunderPhotos

Upload Photos

1,801,577 photos uploaded!

WunderBlogs® & News

Nearby

Air Quality

  Air Quality AQ Index Pollutant
Not available.

Snow Depth

Station Depth Elevation

Earthquake Activity

City Distance Mag. Time & Date
Minimum magnitude displayed is 2.5.

Coastal Water Temperatures

Place Temperature

Nearby Weather Stations

Winter Weather Advisory
Statement as of 3:19 PM EST on March 01, 2015

... Winter Weather Advisory remains in effect until 7 PM EST this
evening...

A Winter Weather Advisory remains in effect until 7 PM EST this
evening.

* Timing... accumulating snow is ending across the area.

* Main impact... area roadways... especially side and secondary
streets... may remain treacherous due to accumulated snow.

Precautionary/preparedness actions...

A Winter Weather Advisory for snow means that periods of snow
will cause travel difficulties. Be prepared for snow covered
roads and limited visibilities... and use caution while driving.